Hanaford, Illinois
Current Conditions -  °F | °C
As of 9:10 PM on Thursday 18 Dec 2014 (Local Time) from KMWA Reporting Station
Overcast Overcast  
Wind Chill: 34°   Ceiling: 2900
Heat Index: 34°   Visibility: 7mi
Dew Point: 30°   Wind: 0mph
Humidity: 87%   Direction: NA
Pressure: 30.29"   Gusts: NA
Location:  37.9555°N, 88.8403°W
Report Text: KMWA 190310Z AUTO 00000KT 7SM BKN029 OVC050 01/M01 A3029 RMK AO2
Loading
Personal Weather Stations






























Interactive Weather Map New forecast layout! Learn more

10-Day Weather Forecast

Advertisements
Track Severe Weather on mobile